Time;durP1;ratioP1;P1;durP2;ratioP2;P2;SDS_P1;SDS_P2;PMS_P1;PMS_P2;Temp;Humidity;BMP_temperature;BMP_pressure;BME280_temperature;BME280_humidity;BME280_pressure;Samples;Min_cycle;Max_cycle;Signal;HPM_P1;HPM_P2
2022/11/30 00:01:11;;;;;;;89.07;38.73;;;8.00;99.90;;;;;;5026087;28;20749;-62
2022/11/30 00:03:38;;;;;;;86.63;38.73;;;8.10;99.90;;;;;;5030091;28;20448;-64
2022/11/30 00:06:07;;;;;;;89.57;39.67;;;8.10;99.90;;;;;;5031359;28;20204;-65
2022/11/30 00:08:34;;;;;;;99.87;45.83;;;8.10;99.90;;;;;;5033222;28;20227;-63
2022/11/30 00:11:11;;;;;;;89.70;42.63;;;8.10;99.90;;;;;;5029089;28;20223;-63
2022/11/30 00:13:38;;;;;;;87.33;39.23;;;8.10;99.90;;;;;;5029046;28;20201;-64
2022/11/30 00:16:05;;;;;;;87.97;39.67;;;8.10;99.90;;;;;;5033246;28;20184;-66
2022/11/30 00:18:32;;;;;;;88.80;41.00;;;8.00;99.90;;;;;;5023109;28;20326;-63
2022/11/30 00:21:04;;;;;;;91.73;43.43;;;8.10;99.90;;;;;;5025780;28;20203;-66
2022/11/30 00:23:37;;;;;;;97.43;43.03;;;8.00;99.90;;;;;;5035930;28;20232;-63
2022/11/30 00:26:06;;;;;;;103.83;41.67;;;8.00;99.90;;;;;;5021944;28;20207;-64
2022/11/30 00:28:35;;;;;;;100.87;43.33;;;8.00;99.90;;;;;;5032704;28;20235;-64
2022/11/30 00:31:04;;;;;;;110.23;43.37;;;8.00;99.90;;;;;;5031267;28;20196;-63
2022/11/30 00:33:33;;;;;;;97.13;41.53;;;8.00;99.90;;;;;;5042492;28;20274;-62
2022/11/30 00:36:03;;;;;;;100.03;39.50;;;8.00;99.90;;;;;;5027652;28;20202;-63
2022/11/30 00:38:31;;;;;;;100.87;42.10;;;8.00;99.90;;;;;;5031646;28;20299;-64
2022/11/30 00:40:59;;;;;;;96.03;40.40;;;8.00;99.90;;;;;;5032256;28;20257;-64
2022/11/30 00:43:29;;;;;;;99.33;41.97;;;8.00;99.90;;;;;;5036838;28;20200;-64
2022/11/30 00:45:57;;;;;;;107.07;42.50;;;8.00;1.00;;;;;;5045772;28;20191;-64
2022/11/30 00:48:24;;;;;;;98.20;39.67;;;8.00;1.00;;;;;;5033414;28;20204;-64
2022/11/30 00:50:51;;;;;;;77.57;37.17;;;8.10;1.00;;;;;;5027439;28;20198;-66
2022/11/30 00:53:19;;;;;;;66.47;34.10;;;7.90;99.90;;;;;;5033906;28;20222;-64
2022/11/30 00:55:47;;;;;;;65.97;32.90;;;7.90;99.90;;;;;;5035083;28;20195;-63
2022/11/30 00:58:14;;;;;;;62.07;31.80;;;7.80;99.90;;;;;;5028764;28;20199;-64
2022/11/30 01:00:41;;;;;;;67.70;32.20;;;7.80;99.90;;;;;;5035390;28;20214;-65
2022/11/30 01:03:09;;;;;;;60.53;31.27;;;7.80;63.70;;;;;;5032007;28;20410;-63
2022/11/30 01:05:36;;;;;;;57.93;29.63;;;7.80;99.90;;;;;;5037807;28;20184;-63
2022/11/30 01:08:06;;;;;;;57.03;29.50;;;7.70;31.30;;;;;;5031374;28;20278;-64
2022/11/30 01:10:34;;;;;;;56.63;29.83;;;7.70;40.20;;;;;;5033021;28;20211;-64
2022/11/30 01:13:01;;;;;;;59.20;30.37;;;7.70;62.80;;;;;;5033999;28;20184;-64
2022/11/30 01:15:29;;;;;;;55.13;28.20;;;7.70;60.50;;;;;;5034060;28;20192;-63
2022/11/30 01:17:59;;;;;;;52.07;27.40;;;7.70;9.30;;;;;;5033369;28;20222;-63
2022/11/30 01:20:25;;;;;;;50.67;27.97;;;7.60;26.50;;;;;;5034645;28;20717;-65
2022/11/30 01:22:54;;;;;;;51.87;27.10;;;7.60;1.00;;;;;;5036274;28;20196;-63
2022/11/30 01:25:22;;;;;;;52.67;28.13;;;7.70;27.00;;;;;;5033355;28;20208;-67
2022/11/30 01:27:49;;;;;;;49.83;27.17;;;7.60;1.00;;;;;;5032746;28;20656;-64
2022/11/30 01:30:17;;;;;;;54.83;28.73;;;7.60;1.00;;;;;;5030954;28;20221;-63
2022/11/30 01:32:44;;;;;;;54.83;28.47;;;7.60;1.00;;;;;;5034775;28;20745;-63
2022/11/30 01:35:11;;;;;;;58.27;30.17;;;7.50;1.00;;;;;;5031243;28;20266;-63
2022/11/30 01:37:38;;;;;;;52.73;28.23;;;7.50;1.00;;;;;;5007321;28;20665;-63
2022/11/30 01:40:06;;;;;;;61.00;31.33;;;7.50;1.00;;;;;;5031370;28;20188;-63
2022/11/30 01:42:33;;;;;;;63.53;31.80;;;7.40;1.00;;;;;;5016146;28;20204;-63
2022/11/30 01:45:01;;;;;;;61.20;31.17;;;7.40;1.00;;;;;;5034184;28;20298;-64
2022/11/30 01:47:39;;;;;;;64.47;31.50;;;7.40;9.50;;;;;;5033453;28;20710;-64
2022/11/30 01:50:17;;;;;;;62.60;31.20;;;7.40;73.20;;;;;;5032026;28;20734;-64
2022/11/30 01:52:49;;;;;;;63.30;32.13;;;7.40;53.10;;;;;;5036422;28;20204;-63
2022/11/30 01:55:33;;;;;;;59.37;32.07;;;7.40;83.20;;;;;;5024467;28;20287;-62
2022/11/30 01:58:23;;;;;;;62.70;32.60;;;7.30;1.00;;;;;;5026240;28;20257;-62
2022/11/30 02:00:50;;;;;;;64.97;32.77;;;7.30;1.00;;;;;;5017519;28;20207;-62
2022/11/30 02:03:26;;;;;;;66.20;32.90;;;7.30;29.70;;;;;;5028807;28;20957;-62
2022/11/30 02:05:53;;;;;;;64.37;33.23;;;7.20;1.00;;;;;;5031950;28;20210;-63
2022/11/30 02:08:20;;;;;;;60.03;30.53;;;7.10;1.00;;;;;;5031730;28;20722;-62
2022/11/30 02:10:53;;;;;;;66.47;33.47;;;7.00;1.00;;;;;;5033665;28;20614;-67
2022/11/30 02:13:33;;;;;;;62.87;31.50;;;7.10;99.90;;;;;;5030919;28;20323;-62
2022/11/30 02:16:05;;;;;;;58.17;31.47;;;7.10;77.00;;;;;;5031913;28;20200;-61
2022/11/30 02:18:39;;;;;;;60.10;31.50;;;7.10;43.70;;;;;;5029781;28;20200;-61
2022/11/30 02:21:23;;;;;;;56.87;31.13;;;7.00;1.00;;;;;;5022921;28;20196;-61
2022/11/30 02:24:02;;;;;;;63.03;30.57;;;7.00;17.40;;;;;;5027095;28;20220;-61
2022/11/30 02:26:45;;;;;;;55.23;29.23;;;7.00;39.00;;;;;;5031004;28;20214;-61
2022/11/30 02:29:20;;;;;;;54.67;27.83;;;7.10;48.70;;;;;;5033541;28;20302;-61
2022/11/30 02:32:04;;;;;;;46.83;26.80;;;7.00;1.00;;;;;;5032575;28;20194;-60
2022/11/30 02:34:34;;;;;;;47.80;26.40;;;6.90;1.00;;;;;;5029870;28;20311;-61
2022/11/30 02:37:03;;;;;;;46.63;26.27;;;6.90;1.00;;;;;;5019199;28;20203;-63
2022/11/30 02:39:30;;;;;;;43.53;24.80;;;6.80;1.00;;;;;;5030402;28;20195;-60
2022/11/30 02:41:57;;;;;;;43.10;24.40;;;6.70;1.00;;;;;;5033568;28;20622;-61
2022/11/30 02:44:25;;;;;;;42.83;24.80;;;6.70;1.00;;;;;;5030920;28;20323;-61
2022/11/30 02:47:10;;;;;;;42.00;24.10;;;6.70;1.00;;;;;;5032295;28;20199;-62
2022/11/30 02:49:44;;;;;;;39.80;22.13;;;6.70;1.00;;;;;;5031336;28;20551;-63
2022/11/30 02:52:13;;;;;;;39.47;22.47;;;6.70;1.00;;;;;;5033756;28;20331;-61
2022/11/30 02:54:40;;;;;;;38.83;22.23;;;6.60;1.00;;;;;;5033781;28;20204;-62
2022/11/30 02:57:07;;;;;;;41.30;23.03;;;6.70;99.90;;;;;;5034541;28;20202;-62
2022/11/30 02:59:34;;;;;;;42.03;23.40;;;6.70;1.00;;;;;;5032293;28;20731;-63
2022/11/30 03:02:01;;;;;;;34.33;21.43;;;6.60;99.90;;;;;;5032609;28;20715;-61
2022/11/30 03:04:28;;;;;;;37.37;22.67;;;6.70;1.00;;;;;;5028899;28;20322;-62
2022/11/30 03:06:55;;;;;;;35.00;21.43;;;6.70;99.90;;;;;;5034560;28;20664;-65
2022/11/30 03:09:22;;;;;;;34.67;21.53;;;6.70;99.90;;;;;;5031439;28;20227;-62
2022/11/30 03:11:49;;;;;;;31.37;20.47;;;6.60;99.90;;;;;;5018285;28;20210;-61
2022/11/30 03:14:16;;;;;;;30.93;21.13;;;6.60;99.90;;;;;;5033763;28;20277;-62
2022/11/30 03:16:43;;;;;;;29.30;20.37;;;6.70;99.90;;;;;;5030093;28;21108;-62
2022/11/30 03:19:10;;;;;;;30.67;21.03;;;6.70;99.90;;;;;;5031079;28;20334;-62
2022/11/30 03:21:36;;;;;;;30.97;19.67;;;6.70;99.90;;;;;;5031076;28;20188;-61
2022/11/30 03:24:03;;;;;;;30.83;19.67;;;6.50;99.90;;;;;;5029172;28;20219;-63
2022/11/30 03:26:30;;;;;;;30.97;20.57;;;6.60;99.90;;;;;;5030975;28;20457;-61
2022/11/30 03:28:57;;;;;;;29.10;19.10;;;6.70;99.90;;;;;;5023434;28;20310;-61
2022/11/30 03:31:24;;;;;;;30.50;20.27;;;6.70;99.90;;;;;;5030810;28;20176;-61
2022/11/30 03:33:51;;;;;;;28.00;18.87;;;6.70;99.90;;;;;;5029847;28;20572;-62
2022/11/30 03:36:18;;;;;;;27.43;18.33;;;6.70;99.90;;;;;;5031946;28;21821;-63
2022/11/30 03:38:46;;;;;;;28.07;19.57;;;6.70;99.90;;;;;;5031279;28;20191;-62
2022/11/30 03:41:15;;;;;;;31.47;19.90;;;6.70;99.90;;;;;;5029791;28;20184;-62
2022/11/30 03:43:43;;;;;;;28.13;18.87;;;6.70;99.90;;;;;;5029448;28;20310;-61
2022/11/30 03:46:11;;;;;;;28.10;18.83;;;6.70;99.90;;;;;;5029378;28;20643;-62
2022/11/30 03:48:40;;;;;;;31.77;20.57;;;6.70;99.90;;;;;;5028763;28;20209;-63
2022/11/30 03:51:08;;;;;;;28.30;19.43;;;6.70;99.90;;;;;;5027755;28;20271;-61
2022/11/30 03:53:35;;;;;;;29.77;19.40;;;6.60;99.90;;;;;;5029794;28;20275;-61
2022/11/30 03:56:05;;;;;;;28.37;19.90;;;6.60;99.90;;;;;;5027354;28;20199;-61
2022/11/30 03:58:33;;;;;;;28.87;20.10;;;6.60;99.90;;;;;;5030217;28;20921;-62
2022/11/30 04:01:03;;;;;;;27.83;19.80;;;6.60;99.90;;;;;;5026761;28;20199;-61
2022/11/30 04:03:30;;;;;;;28.10;19.87;;;6.70;99.90;;;;;;5015867;28;20195;-61
2022/11/30 04:05:58;;;;;;;33.97;20.40;;;6.60;99.90;;;;;;5026813;28;20302;-63
2022/11/30 04:08:26;;;;;;;28.30;19.00;;;6.70;99.90;;;;;;5030974;28;20549;-61
2022/11/30 04:10:54;;;;;;;30.10;20.20;;;6.70;99.90;;;;;;5031338;28;20733;-63
2022/11/30 04:13:22;;;;;;;27.40;18.13;;;6.70;99.90;;;;;;5031859;28;20191;-63
2022/11/30 04:15:51;;;;;;;31.03;20.63;;;6.70;1.00;;;;;;5013060;28;20211;-62
2022/11/30 04:18:20;;;;;;;33.67;21.03;;;6.60;1.00;;;;;;5017192;28;20663;-63
2022/11/30 04:20:51;;;;;;;29.93;19.73;;;6.60;1.00;;;;;;5029229;28;20217;-63
2022/11/30 04:23:19;;;;;;;30.57;20.93;;;6.60;69.00;;;;;;5028875;28;20663;-63
2022/11/30 04:25:46;;;;;;;33.37;21.63;;;6.70;63.70;;;;;;5029394;28;20571;-62
2022/11/30 04:28:15;;;;;;;31.57;20.73;;;6.70;86.40;;;;;;5027895;28;20812;-62
2022/11/30 04:30:42;;;;;;;36.23;22.40;;;6.70;96.60;;;;;;5026634;28;20188;-63
2022/11/30 04:33:09;;;;;;;33.50;22.20;;;6.70;63.60;;;;;;5030533;28;20656;-62
2022/11/30 04:35:54;;;;;;;33.07;21.77;;;6.60;31.90;;;;;;5023221;28;20185;-62
2022/11/30 04:38:22;;;;;;;30.00;20.97;;;6.70;99.90;;;;;;5030775;28;20307;-62
2022/11/30 04:40:50;;;;;;;32.27;22.43;;;6.70;99.90;;;;;;5028705;28;20199;-62
2022/11/30 04:43:17;;;;;;;31.77;21.80;;;6.70;99.90;;;;;;5030433;28;20219;-61
2022/11/30 04:45:45;;;;;;;29.87;20.43;;;6.70;99.90;;;;;;5029173;28;20307;-62
2022/11/30 04:48:12;;;;;;;30.63;20.40;;;6.70;99.90;;;;;;5030375;28;20282;-63
2022/11/30 04:50:39;;;;;;;30.70;22.27;;;6.70;99.90;;;;;;5022035;28;20192;-63
2022/11/30 04:53:06;;;;;;;31.97;22.37;;;6.70;51.50;;;;;;5030509;28;20196;-62
2022/11/30 04:55:36;;;;;;;30.30;21.70;;;6.70;99.90;;;;;;5029890;28;20219;-62
2022/11/30 04:58:04;;;;;;;32.93;22.20;;;6.70;77.90;;;;;;5026375;28;20340;-61
2022/11/30 05:00:32;;;;;;;33.33;23.07;;;6.70;99.90;;;;;;5023922;28;20326;-62
2022/11/30 05:02:59;;;;;;;31.97;23.27;;;6.70;63.10;;;;;;5028469;28;20224;-62
2022/11/30 05:05:26;;;;;;;37.60;24.27;;;6.70;54.90;;;;;;5013166;28;20222;-62
2022/11/30 05:07:57;;;;;;;33.67;22.67;;;6.70;33.30;;;;;;5028575;28;20195;-62
2022/11/30 05:10:26;;;;;;;35.13;23.07;;;6.70;1.00;;;;;;5025136;28;20644;-62
2022/11/30 05:12:53;;;;;;;35.60;24.13;;;6.70;24.30;;;;;;5007150;28;20207;-63
2022/11/30 05:15:20;;;;;;;34.33;23.50;;;6.70;94.90;;;;;;5026478;28;20200;-62
2022/11/30 05:17:47;;;;;;;36.27;24.50;;;6.70;89.40;;;;;;5028199;28;20582;-62
2022/11/30 05:20:14;;;;;;;36.77;23.70;;;6.70;23.50;;;;;;5024908;28;20204;-63
2022/11/30 05:22:41;;;;;;;36.80;24.73;;;6.70;1.00;;;;;;5028452;28;20557;-61
2022/11/30 05:25:09;;;;;;;37.03;24.20;;;6.70;1.00;;;;;;5028189;28;20212;-62
2022/11/30 05:27:36;;;;;;;35.37;24.93;;;6.70;1.00;;;;;;5024903;28;20505;-64
2022/11/30 05:30:04;;;;;;;38.63;25.10;;;6.70;1.00;;;;;;5033056;28;20875;-64
2022/11/30 05:32:31;;;;;;;34.57;23.80;;;6.70;1.00;;;;;;5029744;28;20196;-62
2022/11/30 05:34:58;;;;;;;39.23;25.80;;;6.70;1.00;;;;;;5026702;28;20695;-63
2022/11/30 05:37:25;;;;;;;34.80;24.70;;;6.70;1.00;;;;;;5031450;28;20241;-62
2022/11/30 05:39:52;;;;;;;35.50;24.73;;;6.70;1.00;;;;;;5031498;28;20282;-62
2022/11/30 05:42:20;;;;;;;34.07;24.23;;;6.80;1.00;;;;;;5035811;28;20192;-62
2022/11/30 05:44:47;;;;;;;35.70;23.47;;;6.80;1.00;;;;;;5031921;28;20291;-61
2022/11/30 05:47:15;;;;;;;37.70;24.70;;;6.80;1.00;;;;;;5034543;28;20200;-61
2022/11/30 05:49:42;;;;;;;36.47;24.27;;;6.70;1.00;;;;;;5034721;28;20279;-62
2022/11/30 05:52:09;;;;;;;36.47;25.00;;;6.70;1.00;;;;;;5031528;28;20724;-62
2022/11/30 05:54:36;;;;;;;38.67;26.17;;;6.80;1.00;;;;;;5031476;28;20258;-61
2022/11/30 05:57:04;;;;;;;37.77;26.17;;;6.80;1.00;;;;;;5030026;28;20196;-63
2022/11/30 05:59:31;;;;;;;36.10;25.87;;;6.70;1.00;;;;;;5033379;28;20747;-62
2022/11/30 06:01:58;;;;;;;38.97;25.97;;;6.80;1.00;;;;;;5030479;28;20284;-63
2022/11/30 06:04:25;;;;;;;37.87;25.83;;;6.70;1.00;;;;;;5027597;28;20199;-62
2022/11/30 06:06:54;;;;;;;39.13;26.60;;;6.80;1.00;;;;;;5030404;28;20763;-63
2022/11/30 06:09:22;;;;;;;40.97;27.03;;;6.80;1.00;;;;;;5030638;28;20220;-63
2022/11/30 06:11:49;;;;;;;40.03;26.93;;;6.70;1.00;;;;;;5032670;28;20191;-62
2022/11/30 06:14:16;;;;;;;39.53;26.30;;;6.70;1.00;;;;;;5035572;28;20192;-62
2022/11/30 06:16:43;;;;;;;39.47;25.27;;;6.80;1.00;;;;;;5031538;28;20569;-62
2022/11/30 06:19:10;;;;;;;38.67;26.00;;;6.70;1.00;;;;;;5029600;28;20230;-62
2022/11/30 06:21:37;;;;;;;40.43;26.70;;;6.70;1.00;;;;;;5031582;28;20664;-64
2022/11/30 06:24:04;;;;;;;40.47;26.33;;;6.70;1.00;;;;;;5031063;28;20196;-62
2022/11/30 06:26:31;;;;;;;39.13;26.50;;;6.80;1.00;;;;;;5032772;28;20212;-61
2022/11/30 06:28:58;;;;;;;36.23;25.93;;;6.80;1.00;;;;;;5031926;28;20231;-62
2022/11/30 06:31:25;;;;;;;38.33;27.37;;;6.80;1.00;;;;;;5032635;28;20202;-62
2022/11/30 06:33:56;;;;;;;40.37;27.10;;;6.80;1.00;;;;;;5031384;28;20613;-62
2022/11/30 06:36:23;;;;;;;42.57;28.50;;;6.70;1.00;;;;;;5028355;28;20561;-62
2022/11/30 06:38:50;;;;;;;40.33;27.53;;;6.70;1.00;;;;;;5026001;28;20675;-63
2022/11/30 06:41:17;;;;;;;43.70;29.13;;;6.70;1.00;;;;;;5031713;28;20192;-63
2022/11/30 06:43:44;;;;;;;43.27;28.73;;;6.70;1.00;;;;;;5028668;28;20196;-64
2022/11/30 06:46:12;;;;;;;46.53;29.10;;;6.70;1.00;;;;;;5028997;28;20209;-63
2022/11/30 06:48:39;;;;;;;44.00;27.07;;;6.80;1.00;;;;;;5034014;28;20228;-63
2022/11/30 06:51:08;;;;;;;44.10;28.80;;;6.80;1.00;;;;;;5034562;28;20787;-62
2022/11/30 06:53:36;;;;;;;41.17;26.67;;;6.80;1.00;;;;;;5037332;28;20199;-63
2022/11/30 06:56:04;;;;;;;38.00;26.07;;;6.80;1.00;;;;;;5030623;28;20203;-62
2022/11/30 06:58:40;;;;;;;41.77;27.77;;;6.80;1.00;;;;;;5031189;28;20196;-63
2022/11/30 07:01:08;;;;;;;46.37;28.73;;;6.80;1.00;;;;;;5033031;28;20199;-62
2022/11/30 07:03:36;;;;;;;50.33;29.57;;;6.80;1.00;;;;;;5036319;28;20278;-61
2022/11/30 07:06:13;;;;;;;55.27;38.00;;;6.80;1.00;;;;;;5034890;28;20220;-62
2022/11/30 07:08:41;;;;;;;54.00;35.97;;;6.80;1.00;;;;;;5033095;28;20216;-62
2022/11/30 07:11:10;;;;;;;48.43;32.20;;;6.80;1.00;;;;;;5034386;28;20191;-61
2022/11/30 07:13:37;;;;;;;44.43;29.80;;;6.80;1.00;;;;;;5032353;28;20196;-61
2022/11/30 07:16:06;;;;;;;45.73;30.33;;;6.80;1.00;;;;;;5030652;28;20250;-63
2022/11/30 07:18:34;;;;;;;50.10;31.60;;;6.80;1.00;;;;;;5029674;28;20251;-61
2022/11/30 07:21:03;;;;;;;43.00;28.73;;;6.80;1.00;;;;;;5027171;28;20197;-62
2022/11/30 07:26:22;;;;;;;40.43;27.47;;;6.80;1.00;;;;;;5026502;28;20671;-64
2022/11/30 07:28:53;;;;;;;46.47;28.97;;;6.80;1.00;;;;;;5030392;28;20234;-61
2022/11/30 07:31:25;;;;;;;46.13;29.07;;;6.80;1.00;;;;;;5020806;28;20204;-63
2022/11/30 07:33:52;;;;;;;43.73;28.50;;;6.80;1.00;;;;;;5024261;28;20183;-61
2022/11/30 07:36:22;;;;;;;46.77;29.07;;;6.80;1.00;;;;;;5026366;28;20537;-62
2022/11/30 07:38:49;;;;;;;43.47;28.47;;;6.80;1.00;;;;;;5031681;28;20191;-63
2022/11/30 07:41:18;;;;;;;51.00;34.40;;;6.80;1.00;;;;;;5025015;28;20284;-62
2022/11/30 07:43:45;;;;;;;51.30;31.50;;;6.80;1.00;;;;;;5028690;28;20191;-63
2022/11/30 07:46:14;;;;;;;44.43;29.07;;;6.90;1.00;;;;;;5027701;28;20218;-63
2022/11/30 07:48:42;;;;;;;49.53;30.03;;;6.90;1.00;;;;;;5029742;28;20203;-63
2022/11/30 07:51:15;;;;;;;50.77;32.87;;;6.90;1.00;;;;;;5029211;28;20188;-62
2022/11/30 07:53:43;;;;;;;46.20;30.00;;;6.90;1.00;;;;;;5045820;28;20283;-62
2022/11/30 07:56:12;;;;;;;44.73;28.53;;;6.90;1.00;;;;;;5027234;28;20653;-64
2022/11/30 07:58:40;;;;;;;43.23;26.37;;;6.90;1.00;;;;;;5030756;28;20293;-64
2022/11/30 08:01:13;;;;;;;49.67;30.37;;;6.90;1.00;;;;;;5029982;28;20199;-64
2022/11/30 08:03:40;;;;;;;48.47;29.03;;;6.90;1.00;;;;;;5030323;28;20207;-62
2022/11/30 08:06:18;;;;;;;47.43;29.33;;;6.90;1.00;;;;;;5025869;28;20205;-64
2022/11/30 08:08:47;;;;;;;44.93;27.73;;;6.90;1.00;;;;;;5030311;28;20202;-62
2022/11/30 08:11:16;;;;;;;46.73;29.57;;;6.90;1.00;;;;;;5027028;28;20809;-61
2022/11/30 08:13:43;;;;;;;47.23;28.50;;;6.90;1.00;;;;;;5024802;28;20461;-62
2022/11/30 08:16:16;;;;;;;43.47;27.87;;;6.90;31.00;;;;;;5025363;28;20197;-63
2022/11/30 08:18:44;;;;;;;42.07;26.57;;;6.90;10.70;;;;;;5026830;28;20239;-62
2022/11/30 08:21:13;;;;;;;40.00;25.40;;;6.90;39.00;;;;;;5025176;28;20199;-63
2022/11/30 08:23:46;;;;;;;43.73;24.77;;;6.90;3.20;;;;;;5028228;28;20192;-63
2022/11/30 08:26:21;;;;;;;42.00;25.47;;;6.90;8.10;;;;;;5014665;28;20212;-64
2022/11/30 08:28:49;;;;;;;45.07;25.23;;;6.90;46.40;;;;;;5027731;28;20767;-63
2022/11/30 08:31:19;;;;;;;44.03;27.07;;;6.90;25.70;;;;;;5025790;28;20188;-63
2022/11/30 08:33:47;;;;;;;42.37;25.20;;;6.90;7.30;;;;;;5045071;28;20193;-63
2022/11/30 08:36:18;;;;;;;42.53;24.37;;;6.90;1.00;;;;;;5023699;28;20695;-63
2022/11/30 08:38:45;;;;;;;38.50;23.60;;;7.00;21.80;;;;;;5025957;28;20564;-63
2022/11/30 08:41:15;;;;;;;40.53;24.47;;;7.00;48.80;;;;;;5022295;28;21106;-62
2022/11/30 08:43:42;;;;;;;42.27;24.27;;;7.00;4.00;;;;;;5030074;28;20230;-64
2022/11/30 08:46:12;;;;;;;41.53;24.23;;;7.00;58.70;;;;;;5018643;28;20216;-62
2022/11/30 08:48:59;;;;;;;39.90;23.93;;;7.00;97.10;;;;;;5029954;28;20204;-64
2022/11/30 08:51:47;;;;;;;39.77;22.50;;;7.00;99.90;;;;;;5024480;28;20226;-64
2022/11/30 08:54:33;;;;;;;41.03;23.63;;;7.00;63.30;;;;;;5025605;28;20567;-62
2022/11/30 08:57:00;;;;;;;37.50;22.63;;;7.00;53.20;;;;;;5025437;28;20684;-63
2022/11/30 08:59:30;;;;;;;38.80;22.03;;;7.10;99.90;;;;;;5021124;28;20200;-62
2022/11/30 09:01:57;;;;;;;42.53;28.13;;;7.20;99.90;;;;;;5027552;28;20294;-62
2022/11/30 09:04:24;;;;;;;40.80;22.93;;;7.20;59.80;;;;;;5033511;28;20610;-63
2022/11/30 09:06:51;;;;;;;37.50;21.77;;;7.20;99.90;;;;;;5028218;28;20206;-63
2022/11/30 09:09:18;;;;;;;38.67;22.00;;;7.20;99.90;;;;;;5007879;28;20315;-63
2022/11/30 09:11:44;;;;;;;41.57;27.53;;;7.30;99.90;;;;;;5032482;28;20191;-62
2022/11/30 09:14:11;;;;;;;34.67;22.80;;;7.30;99.90;;;;;;5031225;28;20207;-63
2022/11/30 09:16:38;;;;;;;34.23;20.37;;;7.30;99.90;;;;;;5016415;28;20711;-62
2022/11/30 09:19:05;;;;;;;39.37;21.40;;;7.30;99.90;;;;;;5017886;28;20245;-62
2022/11/30 09:21:33;;;;;;;34.40;19.80;;;7.40;99.90;;;;;;5031628;28;20249;-64
2022/11/30 09:24:00;;;;;;;31.80;19.77;;;7.40;74.00;;;;;;5030288;28;20228;-63
2022/11/30 09:26:26;;;;;;;35.60;18.33;;;7.30;2.90;;;;;;5026838;28;20675;-65
2022/11/30 09:28:54;;;;;;;29.70;17.57;;;7.40;77.30;;;;;;5029950;28;20306;-62
2022/11/30 09:31:25;;;;;;;29.30;16.33;;;7.50;99.90;;;;;;5036092;28;20679;-63
2022/11/30 09:33:55;;;;;;;26.63;16.70;;;7.50;1.00;;;;;;5019264;28;20199;-64
2022/11/30 09:36:26;;;;;;;22.53;14.43;;;7.40;1.00;;;;;;5017568;28;20286;-62
2022/11/30 09:38:54;;;;;;;23.20;15.13;;;7.40;1.00;;;;;;5025390;28;20291;-63
2022/11/30 09:41:42;;;;;;;21.60;14.33;;;7.40;1.00;;;;;;5034126;28;20204;-64
2022/11/30 09:44:26;;;;;;;21.23;14.20;;;7.40;1.00;;;;;;5026241;28;20291;-63
2022/11/30 09:46:56;;;;;;;24.37;14.97;;;7.40;1.00;;;;;;5025734;28;20215;-64
2022/11/30 09:49:31;;;;;;;25.93;15.53;;;7.40;1.00;;;;;;5034852;28;20916;-62
2022/11/30 09:52:03;;;;;;;21.20;12.53;;;7.40;1.00;;;;;;5033441;28;20634;-63
2022/11/30 09:54:35;;;;;;;21.97;13.27;;;7.50;1.00;;;;;;5032986;28;20266;-63
2022/11/30 09:57:17;;;;;;;19.00;11.97;;;7.40;1.00;;;;;;5033265;28;20214;-63
2022/11/30 09:59:56;;;;;;;20.27;12.73;;;7.20;1.00;;;;;;5026966;28;20257;-63
2022/11/30 10:02:31;;;;;;;20.33;13.63;;;7.20;1.00;;;;;;5032343;28;20227;-62
2022/11/30 10:04:59;;;;;;;18.43;12.50;;;7.30;99.90;;;;;;5033628;28;20520;-62
2022/11/30 10:07:47;;;;;;;21.70;13.90;;;7.40;1.00;;;;;;5031130;28;20243;-65
2022/11/30 10:10:33;;;;;;;21.80;14.23;;;7.50;99.90;;;;;;5031731;28;20354;-64
2022/11/30 10:13:03;;;;;;;18.70;14.53;;;7.40;1.00;;;;;;5030280;28;20246;-64
2022/11/30 10:15:38;;;;;;;20.40;13.93;;;7.50;4.00;;;;;;5028829;28;20707;-62
2022/11/30 10:18:35;;;;;;;23.90;16.03;;;7.50;24.00;;;;;;5028818;28;20255;-64
2022/11/30 10:21:36;;;;;;;21.47;16.27;;;7.50;1.00;;;;;;5035460;28;20627;-62
2022/11/30 10:24:14;;;;;;;17.47;12.10;;;7.50;1.00;;;;;;5030221;28;20224;-63
2022/11/30 10:26:51;;;;;;;17.87;12.30;;;7.50;1.00;;;;;;5028296;28;20646;-63
2022/11/30 10:29:19;;;;;;;18.03;12.23;;;7.60;1.00;;;;;;5032480;28;20241;-64
2022/11/30 10:31:49;;;;;;;20.43;13.13;;;7.60;1.00;;;;;;5028845;28;20188;-64
2022/11/30 10:34:31;;;;;;;16.10;11.63;;;7.40;1.00;;;;;;5030165;28;20184;-63
2022/11/30 10:37:03;;;;;;;19.23;12.13;;;7.50;1.00;;;;;;5031563;28;20207;-62
2022/11/30 10:39:50;;;;;;;16.03;12.10;;;7.60;1.00;;;;;;5033629;28;20192;-64
2022/11/30 10:42:19;;;;;;;17.57;10.83;;;7.70;1.00;;;;;;5014507;28;20184;-63
2022/11/30 10:45:05;;;;;;;13.47;10.87;;;7.70;1.00;;;;;;5029178;28;20199;-66
2022/11/30 10:47:35;;;;;;;18.83;11.33;;;7.80;1.00;;;;;;5032180;28;20207;-64
2022/11/30 10:50:06;;;;;;;12.43;10.37;;;7.80;1.00;;;;;;5029390;28;20206;-63
2022/11/30 10:52:43;;;;;;;15.80;11.37;;;7.80;1.00;;;;;;5033143;28;20412;-63
2022/11/30 10:55:20;;;;;;;14.23;10.67;;;8.00;1.00;;;;;;5029322;28;20258;-63
2022/11/30 10:57:51;;;;;;;15.30;11.50;;;8.00;1.00;;;;;;5035102;28;20697;-64
2022/11/30 11:00:19;;;;;;;21.17;12.10;;;8.10;1.00;;;;;;5031814;28;20309;-63
2022/11/30 11:02:50;;;;;;;14.80;11.00;;;8.00;99.90;;;;;;5029480;28;20192;-63
2022/11/30 11:05:25;;;;;;;16.43;14.67;;;7.90;99.90;;;;;;5015334;28;20692;-64
2022/11/30 11:07:55;;;;;;;14.00;10.37;;;7.70;99.90;;;;;;5032663;28;20274;-64
2022/11/30 11:10:44;;;;;;;12.23;9.57;;;7.90;1.00;;;;;;5028780;28;20804;-65
2022/11/30 11:13:16;;;;;;;17.13;14.20;;;8.00;1.00;;;;;;5017182;28;20662;-64
2022/11/30 11:15:59;;;;;;;44.20;39.33;;;8.10;1.00;;;;;;5032746;28;20548;-65
2022/11/30 11:18:31;;;;;;;17.63;12.57;;;8.00;99.90;;;;;;5032235;28;20248;-64
2022/11/30 11:21:04;;;;;;;12.63;10.87;;;8.10;99.90;;;;;;5030903;28;20683;-65
2022/11/30 11:23:36;;;;;;;20.20;17.27;;;8.10;99.90;;;;;;5028868;28;20379;-66
2022/11/30 11:26:06;;;;;;;13.50;10.57;;;8.10;99.90;;;;;;5012910;28;20607;-66
2022/11/30 11:28:35;;;;;;;11.93;10.20;;;8.30;99.90;;;;;;5029110;28;20244;-66
2022/11/30 11:31:16;;;;;;;13.40;9.80;;;8.30;99.90;;;;;;5026307;28;20197;-65
2022/11/30 11:33:51;;;;;;;11.03;9.83;;;8.20;99.90;;;;;;5025335;28;20196;-66
2022/11/30 11:36:26;;;;;;;16.30;10.10;;;8.20;99.90;;;;;;5027091;28;20260;-64
2022/11/30 11:38:53;;;;;;;12.27;9.33;;;8.20;99.90;;;;;;5031381;28;20290;-64
2022/11/30 11:41:27;;;;;;;14.23;9.67;;;8.20;99.90;;;;;;5026904;28;20231;-65
2022/11/30 11:43:59;;;;;;;12.07;9.10;;;8.20;99.90;;;;;;5029167;28;20205;-64
2022/11/30 11:46:27;;;;;;;18.97;14.30;;;8.00;99.90;;;;;;5028359;28;20326;-64
2022/11/30 11:49:03;;;;;;;11.63;9.03;;;8.00;99.90;;;;;;5026983;28;20250;-65
2022/11/30 11:51:35;;;;;;;10.33;8.80;;;8.00;99.90;;;;;;5030936;28;20184;-64
2022/11/30 11:54:12;;;;;;;14.23;9.73;;;7.90;99.90;;;;;;5036239;28;20693;-64
2022/11/30 11:56:39;;;;;;;16.20;9.03;;;7.90;99.90;;;;;;5042663;28;20203;-64
2022/11/30 11:59:09;;;;;;;14.23;10.20;;;7.70;99.90;;;;;;5031738;28;20210;-65
2022/11/30 12:02:02;;;;;;;15.90;9.73;;;7.70;99.90;;;;;;5011371;28;20223;-64
2022/11/30 12:04:41;;;;;;;17.03;11.10;;;7.80;99.90;;;;;;5024668;28;20228;-65
2022/11/30 12:07:30;;;;;;;14.00;10.00;;;7.70;99.90;;;;;;5028317;28;20211;-63
2022/11/30 12:10:17;;;;;;;14.47;10.47;;;7.70;99.90;;;;;;5022916;28;20327;-63
2022/11/30 12:13:15;;;;;;;12.83;9.23;;;7.80;99.90;;;;;;5021791;28;20777;-62
2022/11/30 12:15:54;;;;;;;12.40;9.00;;;7.90;99.90;;;;;;5020023;28;20559;-63
2022/11/30 12:18:29;;;;;;;14.67;9.10;;;7.90;99.90;;;;;;5028965;28;20257;-64
2022/11/30 12:21:01;;;;;;;13.03;9.20;;;7.90;99.90;;;;;;5021982;28;20299;-63
2022/11/30 12:23:44;;;;;;;12.97;9.80;;;8.00;99.90;;;;;;5046008;28;20536;-63
2022/11/30 12:26:32;;;;;;;14.47;10.03;;;7.80;99.90;;;;;;5003397;28;20199;-64
2022/11/30 12:29:36;;;;;;;15.20;9.83;;;7.80;99.90;;;;;;5031451;28;20315;-62
2022/11/30 12:32:24;;;;;;;13.63;9.10;;;7.90;99.90;;;;;;5028678;28;20192;-63
2022/11/30 12:35:19;;;;;;;14.70;11.70;;;8.20;99.90;;;;;;5025151;28;20843;-63
2022/11/30 12:37:55;;;;;;;17.23;11.53;;;8.20;99.90;;;;;;5028536;28;20668;-63
2022/11/30 12:40:46;;;;;;;15.43;10.93;;;8.20;99.90;;;;;;5034129;28;20286;-64
2022/11/30 12:43:32;;;;;;;19.00;11.03;;;8.00;99.90;;;;;;5034464;28;20277;-64
2022/11/30 12:46:13;;;;;;;15.53;11.70;;;8.00;99.90;;;;;;5021220;28;20705;-63
2022/11/30 12:49:04;;;;;;;16.60;11.10;;;8.10;99.90;;;;;;5040575;28;20206;-65
2022/11/30 12:51:42;;;;;;;16.57;10.63;;;7.80;99.90;;;;;;5035521;28;20268;-62
2022/11/30 12:54:29;;;;;;;15.53;12.07;;;7.90;99.90;;;;;;5036965;28;20187;-62
2022/11/30 12:57:01;;;;;;;17.17;12.00;;;7.80;99.90;;;;;;5031703;28;20253;-62
2022/11/30 12:59:53;;;;;;;15.90;11.23;;;7.90;99.90;;;;;;5033667;28;20195;-62
2022/11/30 13:02:56;;;;;;;18.70;12.70;;;7.80;99.90;;;;;;5034934;28;20265;-64
2022/11/30 13:05:44;;;;;;;19.83;12.73;;;7.60;99.90;;;;;;5037576;28;20195;-62
2022/11/30 13:08:16;;;;;;;18.40;13.93;;;7.50;99.90;;;;;;5039973;28;20304;-62